createdAt,value
2022-12-04T00:02:08.237Z,17.83
2022-12-04T00:06:30.036Z,15.68
2022-12-04T00:10:51.983Z,20.38
2022-12-04T00:15:25.274Z,16.02
2022-12-04T00:19:47.962Z,17.17
2022-12-04T00:24:09.779Z,17.83
2022-12-04T00:28:31.752Z,16.90
2022-12-04T00:32:53.588Z,17.63
2022-12-04T00:37:15.574Z,19.30
2022-12-04T00:41:38.102Z,18.35
2022-12-04T00:46:00.109Z,19.20
2022-12-04T00:50:22.738Z,20.02
2022-12-04T00:54:44.545Z,30.63
2022-12-04T00:59:06.627Z,28.83
2022-12-04T01:03:28.586Z,31.25
2022-12-04T01:07:50.560Z,31.77
2022-12-04T01:12:17.579Z,33.53
2022-12-04T01:16:42.303Z,30.98
2022-12-04T01:21:04.589Z,31.02
2022-12-04T01:25:26.547Z,34.53
2022-12-04T01:29:48.419Z,37.47
2022-12-04T01:34:10.343Z,37.28
2022-12-04T01:38:32.387Z,41.25
2022-12-04T01:42:54.452Z,35.30
2022-12-04T01:47:16.348Z,36.88
2022-12-04T01:51:46.383Z,35.78
2022-12-04T01:56:08.705Z,40.30
2022-12-04T02:00:31.283Z,44.42
2022-12-04T02:04:54.308Z,41.72
2022-12-04T02:09:19.310Z,45.97
2022-12-04T02:13:46.282Z,50.38
2022-12-04T02:18:43.586Z,50.05
2022-12-04T02:23:35.863Z,55.28
2022-12-04T02:28:04.924Z,48.70
2022-12-04T02:32:46.001Z,50.50
2022-12-04T02:37:21.607Z,51.67
2022-12-04T02:42:19.586Z,48.35
2022-12-04T02:46:46.574Z,57.30
2022-12-04T02:51:13.382Z,51.90
2022-12-04T02:55:43.153Z,54.08
2022-12-04T03:00:08.967Z,52.00
2022-12-04T03:04:31.774Z,53.63
2022-12-04T03:09:11.945Z,53.10
2022-12-04T03:13:41.459Z,53.20
2022-12-04T03:18:29.428Z,54.40
2022-12-04T03:23:01.699Z,56.63
2022-12-04T03:27:55.893Z,56.70
2022-12-04T03:32:52.288Z,61.78
2022-12-04T03:37:18.565Z,63.97
2022-12-04T03:42:22.779Z,68.40
2022-12-04T03:47:01.806Z,69.00
2022-12-04T03:51:45.472Z,64.13
2022-12-04T03:56:12.827Z,65.40
2022-12-04T04:00:41.720Z,70.55
2022-12-04T04:05:08.899Z,71.13
2022-12-04T04:09:39.440Z,70.53
2022-12-04T04:14:30.466Z,59.88
2022-12-04T04:19:13.201Z,72.60
2022-12-04T04:24:01.438Z,70.35
2022-12-04T04:28:37.751Z,69.97
2022-12-04T04:33:12.356Z,63.50
2022-12-04T04:38:06.546Z,67.25
2022-12-04T04:42:35.767Z,66.22
2022-12-04T04:47:04.677Z,63.30
2022-12-04T04:51:28.896Z,67.03
2022-12-04T04:55:50.634Z,71.45
2022-12-04T05:00:17.427Z,60.85
2022-12-04T05:04:39.148Z,74.50
2022-12-04T05:09:01.095Z,68.55
2022-12-04T05:13:23.740Z,78.20
2022-12-04T05:17:45.649Z,84.47
2022-12-04T05:22:07.664Z,84.25
2022-12-04T05:26:29.647Z,84.90
2022-12-04T05:31:01.712Z,84.15
2022-12-04T05:35:23.815Z,88.45
2022-12-04T05:39:45.803Z,91.55
2022-12-04T05:44:07.407Z,100.68
2022-12-04T05:48:29.340Z,105.15
2022-12-04T05:52:51.281Z,97.13
2022-12-04T05:57:13.311Z,102.60
2022-12-04T06:01:35.399Z,97.22
2022-12-04T06:05:57.427Z,96.68
2022-12-04T06:10:19.352Z,96.63
2022-12-04T06:14:41.409Z,100.93
2022-12-04T06:19:11.506Z,96.20
2022-12-04T06:23:33.356Z,104.07
2022-12-04T06:27:55.590Z,98.53
2022-12-04T06:32:21.427Z,107.32
2022-12-04T06:36:43.777Z,94.93
2022-12-04T06:41:08.071Z,96.43
2022-12-04T06:45:29.800Z,103.28
2022-12-04T06:49:51.797Z,98.25
2022-12-04T06:54:13.790Z,103.85
2022-12-04T06:58:36.081Z,100.40
2022-12-04T07:02:57.762Z,97.05
2022-12-04T07:07:20.994Z,98.10
2022-12-04T07:11:44.352Z,98.88
2022-12-04T07:16:09.369Z,103.72
2022-12-04T07:20:31.713Z,89.80
2022-12-04T07:24:53.778Z,94.13
2022-12-04T07:29:15.773Z,91.30
2022-12-04T07:33:38.553Z,90.70
2022-12-04T07:38:00.236Z,87.97
2022-12-04T07:42:24.278Z,87.75
2022-12-04T07:46:46.552Z,92.05
2022-12-04T07:51:17.551Z,83.35
2022-12-04T07:55:39.374Z,80.68
2022-12-04T08:00:01.336Z,82.90
2022-12-04T08:04:33.497Z,84.07
2022-12-04T08:08:57.335Z,78.75
2022-12-04T08:13:18.947Z,77.47
2022-12-04T08:17:40.908Z,77.47
2022-12-04T08:22:02.816Z,75.55
2022-12-04T08:26:27.102Z,76.28
2022-12-04T08:30:48.863Z,72.57
2022-12-04T08:35:10.973Z,72.80
2022-12-04T08:39:33.009Z,67.32
2022-12-04T08:43:56.275Z,68.15
2022-12-04T08:48:17.918Z,70.35
2022-12-04T08:52:39.932Z,69.45
2022-12-04T08:57:02.018Z,65.47
2022-12-04T09:01:25.873Z,68.32
2022-12-04T09:05:48.836Z,66.55
2022-12-04T09:10:11.367Z,69.40
2022-12-04T09:14:33.462Z,69.10
2022-12-04T09:18:56.101Z,68.22
2022-12-04T09:23:17.971Z,62.45
2022-12-04T09:27:43.752Z,66.85
2022-12-04T09:32:05.456Z,63.60
2022-12-04T09:36:27.907Z,67.82
2022-12-04T09:41:38.482Z,69.57
2022-12-04T09:46:15.096Z,72.75
2022-12-04T09:50:43.097Z,73.75
2022-12-04T09:55:10.600Z,73.80
2022-12-04T09:59:33.282Z,73.70
2022-12-04T10:03:58.813Z,79.25
2022-12-04T10:08:42.461Z,75.97
2022-12-04T10:13:22.943Z,79.15
2022-12-04T10:18:11.748Z,86.55
2022-12-04T10:23:13.393Z,78.22
2022-12-04T10:27:56.303Z,81.60
2022-12-04T10:32:30.246Z,81.40
2022-12-04T10:36:57.486Z,76.45
2022-12-04T10:41:31.719Z,84.35
2022-12-04T10:45:53.708Z,82.32
2022-12-04T10:50:23.109Z,85.18
2022-12-04T10:55:06.338Z,78.93
2022-12-04T10:59:29.256Z,79.03
2022-12-04T11:04:07.815Z,77.38
2022-12-04T11:08:39.421Z,74.43
2022-12-04T11:13:12.509Z,79.07
2022-12-04T11:17:34.903Z,76.40
2022-12-04T11:22:11.998Z,83.80
2022-12-04T11:26:41.977Z,80.15
2022-12-04T11:31:07.542Z,81.22
2022-12-04T11:35:31.426Z,82.13
2022-12-04T11:39:54.883Z,80.93
2022-12-04T11:44:28.988Z,77.70
2022-12-04T11:48:51.906Z,78.70
2022-12-04T11:53:46.967Z,76.93
2022-12-04T11:58:35.704Z,77.38
2022-12-04T12:03:13.547Z,87.97
2022-12-04T12:08:09.145Z,78.90
2022-12-04T12:12:46.737Z,88.35
2022-12-04T12:17:32.667Z,82.63
2022-12-04T12:22:44.994Z,86.70
2022-12-04T12:27:33.086Z,87.03
2022-12-04T12:32:11.408Z,98.18
2022-12-04T12:36:43.728Z,88.13
2022-12-04T12:41:48.095Z,90.68
2022-12-04T12:46:21.284Z,95.20
2022-12-04T12:50:58.184Z,95.00
2022-12-04T12:55:40.998Z,88.07
2022-12-04T13:00:23.509Z,87.03
2022-12-04T13:04:50.577Z,84.30
2022-12-04T13:09:27.287Z,92.38
2022-12-04T13:13:54.643Z,93.25
2022-12-04T13:18:46.085Z,84.57
2022-12-04T13:23:19.910Z,88.10
2022-12-04T13:28:21.928Z,90.63
2022-12-04T13:33:10.345Z,101.53
2022-12-04T13:38:14.424Z,104.60
2022-12-04T13:42:36.463Z,113.82
2022-12-04T13:47:03.112Z,111.22
2022-12-04T13:51:35.607Z,108.22
2022-12-04T13:56:00.833Z,117.57
2022-12-04T14:00:35.880Z,125.88
2022-12-04T14:05:06.233Z,125.57
2022-12-04T14:09:39.379Z,118.68
2022-12-04T14:14:07.941Z,120.30
2022-12-04T14:18:31.028Z,110.20
2022-12-04T14:22:53.248Z,105.32
2022-12-04T14:27:45.844Z,107.50
2022-12-04T14:32:33.769Z,97.47
2022-12-04T14:36:57.453Z,111.60
2022-12-04T14:41:27.682Z,112.53
2022-12-04T14:45:49.208Z,109.13
2022-12-04T14:50:44.617Z,103.70
2022-12-04T14:55:41.804Z,106.15
2022-12-04T15:00:05.961Z,116.70
2022-12-04T15:04:34.893Z,115.18
2022-12-04T15:09:18.990Z,112.18
2022-12-04T15:13:41.094Z,109.95
2022-12-04T15:18:15.974Z,121.97
2022-12-04T15:22:37.935Z,114.97
2022-12-04T15:27:00.084Z,123.15
2022-12-04T15:31:48.407Z,129.82
2022-12-04T15:36:34.194Z,127.97
2022-12-04T15:40:59.591Z,127.00
2022-12-04T15:45:31.798Z,125.97
2022-12-04T15:49:53.879Z,128.70
2022-12-04T15:54:26.164Z,128.00
2022-12-04T15:59:01.238Z,141.00
2022-12-04T16:03:52.648Z,124.88
2022-12-04T16:08:33.289Z,129.85
2022-12-04T16:13:05.737Z,127.30
2022-12-04T16:17:32.379Z,207.13
2022-12-04T16:21:54.244Z,125.10
2022-12-04T16:26:19.289Z,154.88
2022-12-04T16:30:41.248Z,137.18
2022-12-04T16:35:03.360Z,130.60
2022-12-04T16:39:25.003Z,136.35
2022-12-04T16:44:02.790Z,155.10
2022-12-04T16:48:24.498Z,140.68
2022-12-04T16:52:46.691Z,130.48
2022-12-04T16:57:09.340Z,137.25
2022-12-04T17:01:39.441Z,129.93
2022-12-04T17:06:01.993Z,136.63
2022-12-04T17:10:24.630Z,152.70
2022-12-04T17:14:46.605Z,132.60
2022-12-04T17:19:10.986Z,121.15
2022-12-04T17:23:33.275Z,121.57
2022-12-04T17:27:55.025Z,144.50
2022-12-04T17:32:16.928Z,122.47
2022-12-04T17:36:39.373Z,129.02
2022-12-04T17:41:03.757Z,131.82
2022-12-04T17:45:25.594Z,133.68
2022-12-04T17:49:48.096Z,126.05
2022-12-04T17:54:12.087Z,124.43
2022-12-04T17:58:36.400Z,130.38
2022-12-04T18:02:58.429Z,121.15
2022-12-04T18:07:20.722Z,108.50
2022-12-04T18:11:48.156Z,95.93
2022-12-04T18:16:12.053Z,82.82
2022-12-04T18:20:33.986Z,64.63
2022-12-04T18:24:55.896Z,59.20
2022-12-04T18:29:23.174Z,58.85
2022-12-04T18:33:46.035Z,49.78
2022-12-04T18:38:07.700Z,47.85
2022-12-04T18:42:31.157Z,47.00
2022-12-04T18:46:53.643Z,44.22
2022-12-04T18:51:16.035Z,45.75
2022-12-04T18:55:38.340Z,44.72
2022-12-04T19:00:00.305Z,41.25
2022-12-04T19:04:24.163Z,42.22
2022-12-04T19:08:46.157Z,40.70
2022-12-04T19:13:08.013Z,41.97
2022-12-04T19:17:29.886Z,42.03
2022-12-04T19:21:51.843Z,39.20
2022-12-04T19:26:13.912Z,41.45
2022-12-04T19:30:36.007Z,38.08
2022-12-04T19:34:58.219Z,39.67
2022-12-04T19:39:20.231Z,37.17
2022-12-04T19:43:45.506Z,35.63
2022-12-04T19:48:07.517Z,37.97
2022-12-04T19:52:29.376Z,39.22
2022-12-04T19:56:52.640Z,39.42
2022-12-04T20:01:18.937Z,39.40
2022-12-04T20:05:40.552Z,39.50
2022-12-04T20:10:02.633Z,37.63
2022-12-04T20:14:24.545Z,36.15
2022-12-04T20:18:47.210Z,38.17
2022-12-04T20:23:08.987Z,41.92
2022-12-04T20:27:32.008Z,38.50
2022-12-04T20:31:53.766Z,37.65
2022-12-04T20:36:18.916Z,39.47
2022-12-04T20:40:41.056Z,37.75
2022-12-04T20:45:02.974Z,43.65
2022-12-04T20:49:24.868Z,41.75
2022-12-04T20:53:48.279Z,37.58
2022-12-04T20:58:10.035Z,41.35
2022-12-04T21:02:32.014Z,42.10
2022-12-04T21:06:54.078Z,37.72
2022-12-04T21:11:16.016Z,37.92
2022-12-04T21:15:56.830Z,32.92
2022-12-04T21:20:18.847Z,37.10
2022-12-04T21:24:42.248Z,35.05
2022-12-04T21:29:06.430Z,35.40
2022-12-04T21:33:29.292Z,32.92
2022-12-04T21:37:51.193Z,37.00
2022-12-04T21:42:31.422Z,36.13
2022-12-04T21:46:53.332Z,36.65
2022-12-04T21:51:39.866Z,36.42
2022-12-04T21:55:57.303Z,37.20
2022-12-04T22:00:19.381Z,39.67
2022-12-04T22:04:41.987Z,43.10
2022-12-04T22:09:08.466Z,42.50
2022-12-04T22:13:30.027Z,44.03
2022-12-04T22:17:51.991Z,42.80
2022-12-04T22:22:13.912Z,45.83
2022-12-04T22:26:36.696Z,49.30
2022-12-04T22:31:05.962Z,49.25
2022-12-04T22:35:28.204Z,49.58
2022-12-04T22:39:49.840Z,46.88
2022-12-04T22:44:11.578Z,53.25
2022-12-04T22:48:35.268Z,45.92
2022-12-04T22:52:57.508Z,49.60
2022-12-04T22:57:19.821Z,48.92
2022-12-04T23:01:41.823Z,48.90
2022-12-04T23:06:04.430Z,45.35
2022-12-04T23:10:26.056Z,46.42
2022-12-04T23:14:48.153Z,48.72
2022-12-04T23:19:13.720Z,47.00
2022-12-04T23:23:38.531Z,44.42
2022-12-04T23:28:00.479Z,50.50
2022-12-04T23:32:22.498Z,48.53
2022-12-04T23:36:44.478Z,45.50
2022-12-04T23:41:17.544Z,47.05
2022-12-04T23:45:39.681Z,46.45
2022-12-04T23:50:02.347Z,47.55
2022-12-04T23:54:24.117Z,47.65
2022-12-04T23:58:49.261Z,48.30
